createdAt,value
2023-08-27T00:02:29.121Z,1.98
2023-08-27T00:04:58.870Z,2.08
2023-08-27T00:07:31.589Z,2.05
2023-08-27T00:10:02.151Z,1.98
2023-08-27T00:12:32.314Z,2.03
2023-08-27T00:15:02.915Z,2.03
2023-08-27T00:17:32.979Z,2.10
2023-08-27T00:20:05.533Z,2.10
2023-08-27T00:22:38.844Z,2.03
2023-08-27T00:25:10.845Z,2.13
2023-08-27T00:27:41.915Z,2.25
2023-08-27T00:30:13.748Z,2.33
2023-08-27T00:32:43.778Z,2.22
2023-08-27T00:35:14.313Z,2.05
2023-08-27T00:37:45.860Z,2.15
2023-08-27T00:40:17.697Z,2.15
2023-08-27T00:42:48.269Z,2.00
2023-08-27T00:45:18.641Z,2.10
2023-08-27T00:47:49.315Z,2.00
2023-08-27T00:50:20.783Z,2.20
2023-08-27T00:52:54.780Z,3.92
2023-08-27T00:55:24.840Z,2.45
2023-08-27T00:57:57.857Z,2.15
2023-08-27T01:00:28.687Z,2.10
2023-08-27T01:02:59.394Z,2.17
2023-08-27T01:05:31.141Z,2.08
2023-08-27T01:08:17.778Z,2.05
2023-08-27T01:11:01.279Z,2.05
2023-08-27T01:13:40.361Z,2.10
2023-08-27T01:16:12.658Z,2.00
2023-08-27T01:18:44.822Z,2.10
2023-08-27T01:21:22.835Z,2.10
2023-08-27T01:23:53.747Z,2.20
2023-08-27T01:26:31.573Z,2.17
2023-08-27T01:29:11.972Z,2.10
2023-08-27T01:31:51.507Z,2.20
2023-08-27T01:34:26.335Z,2.00
2023-08-27T01:36:59.685Z,2.15
2023-08-27T01:39:29.630Z,1.90
2023-08-27T01:42:00.033Z,2.47
2023-08-27T01:44:30.482Z,2.25
2023-08-27T01:47:00.238Z,2.22
2023-08-27T01:49:30.871Z,2.05
2023-08-27T01:52:02.717Z,2.00
2023-08-27T01:54:36.350Z,2.00
2023-08-27T01:57:07.443Z,2.10
2023-08-27T01:59:37.866Z,2.10
2023-08-27T02:02:08.624Z,1.95
2023-08-27T02:04:39.317Z,2.22
2023-08-27T02:07:12.642Z,2.38
2023-08-27T02:09:43.060Z,2.10
2023-08-27T02:12:13.408Z,2.30
2023-08-27T02:14:44.882Z,2.05
2023-08-27T02:17:15.048Z,2.20
2023-08-27T02:19:45.861Z,2.10
2023-08-27T02:22:17.875Z,2.05
2023-08-27T02:24:47.579Z,2.10
2023-08-27T02:27:18.036Z,2.15
2023-08-27T02:29:48.442Z,2.05
2023-08-27T02:32:18.753Z,1.95
2023-08-27T02:34:48.457Z,2.03
2023-08-27T02:37:20.251Z,2.00
2023-08-27T02:39:51.005Z,2.10
2023-08-27T02:42:21.100Z,2.00
2023-08-27T02:44:51.513Z,1.98
2023-08-27T02:47:22.074Z,2.22
2023-08-27T02:49:52.599Z,2.30
2023-08-27T02:52:25.006Z,2.30
2023-08-27T02:54:55.017Z,2.10
2023-08-27T02:57:25.806Z,2.00
2023-08-27T02:59:58.480Z,2.15
2023-08-27T03:02:29.740Z,2.05
2023-08-27T03:05:02.806Z,2.17
2023-08-27T03:07:49.487Z,2.15
2023-08-27T03:10:19.471Z,2.10
2023-08-27T03:12:50.846Z,2.13
2023-08-27T03:15:21.417Z,2.10
2023-08-27T03:17:51.955Z,2.30
2023-08-27T03:20:22.396Z,2.10
2023-08-27T03:22:55.191Z,2.38
2023-08-27T03:25:25.693Z,2.05
2023-08-27T03:27:55.394Z,2.35
2023-08-27T03:30:25.946Z,2.15
2023-08-27T03:32:56.459Z,2.30
2023-08-27T03:35:27.012Z,2.42
2023-08-27T03:37:59.449Z,2.40
2023-08-27T03:40:30.135Z,2.45
2023-08-27T03:42:59.997Z,2.40
2023-08-27T03:45:31.272Z,2.30
2023-08-27T03:48:01.852Z,2.08
2023-08-27T03:50:33.562Z,2.20
2023-08-27T03:53:05.637Z,2.25
2023-08-27T03:55:43.005Z,2.20
2023-08-27T03:58:14.156Z,2.10
2023-08-27T04:00:45.114Z,2.22
2023-08-27T04:03:15.804Z,2.00
2023-08-27T04:05:49.931Z,2.15
2023-08-27T04:08:22.742Z,2.10
2023-08-27T04:10:54.267Z,1.90
2023-08-27T04:13:24.253Z,2.15
2023-08-27T04:16:03.075Z,2.30
2023-08-27T04:18:34.249Z,2.15
2023-08-27T04:21:06.265Z,2.22
2023-08-27T04:23:38.537Z,2.25
2023-08-27T04:26:08.983Z,2.30
2023-08-27T04:28:39.893Z,2.42
2023-08-27T04:31:10.139Z,2.35
2023-08-27T04:33:39.953Z,2.13
2023-08-27T04:36:10.726Z,2.47
2023-08-27T04:38:43.162Z,2.25
2023-08-27T04:41:11.884Z,2.08
2023-08-27T04:43:42.359Z,2.10
2023-08-27T04:46:12.179Z,2.20
2023-08-27T04:48:42.797Z,2.10
2023-08-27T04:51:15.543Z,2.15
2023-08-27T04:53:48.156Z,1.80
2023-08-27T04:56:18.676Z,2.40
2023-08-27T04:58:49.364Z,2.45
2023-08-27T05:01:28.550Z,2.22
2023-08-27T05:03:59.215Z,2.13
2023-08-27T05:06:29.881Z,2.10
2023-08-27T05:09:01.936Z,2.05
2023-08-27T05:11:32.583Z,2.38
2023-08-27T05:14:03.393Z,2.13
2023-08-27T05:16:35.966Z,2.13
2023-08-27T05:19:05.979Z,2.10
2023-08-27T05:21:36.501Z,2.40
2023-08-27T05:24:09.568Z,2.00
2023-08-27T05:26:40.019Z,2.25
2023-08-27T05:29:10.505Z,2.00
2023-08-27T05:31:41.055Z,2.90
2023-08-27T05:34:10.951Z,1.88
2023-08-27T05:36:41.399Z,2.20
2023-08-27T05:39:15.743Z,1.90
2023-08-27T05:41:46.246Z,2.00
2023-08-27T05:44:16.913Z,1.98
2023-08-27T05:46:46.816Z,1.58
2023-08-27T05:49:17.419Z,2.10
2023-08-27T05:51:48.161Z,1.90
2023-08-27T05:54:20.338Z,2.40
2023-08-27T05:56:51.071Z,1.73
2023-08-27T05:59:21.782Z,1.80
2023-08-27T06:01:52.674Z,1.92
2023-08-27T06:04:23.449Z,1.90
2023-08-27T06:06:54.077Z,1.70
2023-08-27T06:09:26.648Z,1.73
2023-08-27T06:11:57.271Z,2.00
2023-08-27T06:14:27.137Z,1.90
2023-08-27T06:16:57.638Z,1.73
2023-08-27T06:19:39.229Z,1.92
2023-08-27T06:22:13.928Z,1.88
2023-08-27T06:24:45.315Z,1.83
2023-08-27T06:27:16.385Z,1.50
2023-08-27T06:29:47.301Z,1.63
2023-08-27T06:32:18.197Z,1.88
2023-08-27T06:34:48.517Z,1.80
2023-08-27T06:37:19.164Z,1.85
2023-08-27T06:39:51.379Z,1.90
2023-08-27T06:42:21.915Z,1.88
2023-08-27T06:44:52.472Z,1.60
2023-08-27T06:47:22.906Z,1.83
2023-08-27T06:49:54.456Z,1.92
2023-08-27T06:52:24.871Z,1.55
2023-08-27T06:54:56.814Z,1.60
2023-08-27T06:57:28.615Z,1.60
2023-08-27T06:59:58.380Z,1.65
2023-08-27T07:02:29.543Z,1.60
2023-08-27T07:05:00.304Z,1.90
2023-08-27T07:07:31.808Z,1.55
2023-08-27T07:10:04.727Z,1.77
2023-08-27T07:12:36.160Z,1.90
2023-08-27T07:15:07.329Z,1.70
2023-08-27T07:17:37.785Z,1.40
2023-08-27T07:20:10.708Z,1.55
2023-08-27T07:22:41.270Z,1.70
2023-08-27T07:25:15.671Z,1.42
2023-08-27T07:27:47.895Z,1.48
2023-08-27T07:30:18.496Z,1.75
2023-08-27T07:32:49.051Z,1.55
2023-08-27T07:35:19.798Z,1.70
2023-08-27T07:37:50.325Z,1.40
2023-08-27T07:40:23.148Z,1.52
2023-08-27T07:42:54.783Z,1.60
2023-08-27T07:45:25.686Z,1.33
2023-08-27T07:47:56.227Z,1.60
2023-08-27T07:53:10.170Z,1.70
2023-08-27T07:55:41.619Z,1.45
2023-08-27T07:58:11.602Z,1.60
2023-08-27T08:00:42.163Z,1.60
2023-08-27T08:03:13.132Z,1.60
2023-08-27T08:05:43.829Z,1.55
2023-08-27T08:08:14.783Z,1.60
2023-08-27T08:10:47.122Z,1.40
2023-08-27T08:13:18.276Z,1.58
2023-08-27T08:15:52.582Z,1.60
2023-08-27T08:18:23.144Z,1.52
2023-08-27T08:20:57.751Z,1.50
2023-08-27T08:23:28.895Z,1.70
2023-08-27T08:26:02.382Z,1.80
2023-08-27T08:28:33.222Z,1.70
2023-08-27T08:31:04.793Z,1.65
2023-08-27T08:33:35.495Z,1.73
2023-08-27T08:36:06.535Z,1.73
2023-08-27T08:38:36.433Z,1.80
2023-08-27T08:41:12.649Z,1.60
2023-08-27T08:43:48.807Z,1.90
2023-08-27T08:46:22.716Z,1.90
2023-08-27T08:48:56.191Z,1.98
2023-08-27T08:51:29.253Z,1.83
2023-08-27T08:54:08.411Z,1.83
2023-08-27T08:56:47.740Z,1.88
2023-08-27T08:59:17.544Z,1.80
2023-08-27T09:01:51.839Z,1.45
2023-08-27T09:04:38.263Z,2.10
2023-08-27T09:07:09.353Z,1.40
2023-08-27T09:09:42.352Z,1.73
2023-08-27T09:12:17.394Z,1.67
2023-08-27T09:14:47.623Z,1.75
2023-08-27T09:17:21.670Z,1.70
2023-08-27T09:19:54.226Z,2.00
2023-08-27T09:22:27.111Z,1.90
2023-08-27T09:24:58.838Z,1.77
2023-08-27T09:27:54.977Z,1.90
2023-08-27T09:30:26.644Z,1.90
2023-08-27T09:32:58.441Z,1.33
2023-08-27T09:35:41.434Z,1.83
2023-08-27T09:38:15.152Z,1.58
2023-08-27T09:40:46.018Z,1.40
2023-08-27T09:43:19.014Z,1.65
2023-08-27T09:45:49.750Z,1.63
2023-08-27T09:48:27.816Z,1.70
2023-08-27T09:51:07.787Z,1.67
2023-08-27T09:53:38.749Z,1.60
2023-08-27T09:56:09.258Z,1.40
2023-08-27T09:58:44.226Z,1.70
2023-08-27T10:01:14.850Z,1.70
2023-08-27T10:03:47.427Z,1.52
2023-08-27T10:06:17.559Z,1.67
2023-08-27T10:08:54.239Z,1.50
2023-08-27T10:11:26.571Z,1.50
2023-08-27T10:14:00.328Z,1.50
2023-08-27T10:16:31.856Z,1.50
2023-08-27T10:19:02.834Z,1.40
2023-08-27T10:21:34.412Z,1.30
2023-08-27T10:24:06.560Z,1.50
2023-08-27T10:26:38.070Z,1.48
2023-08-27T10:29:11.212Z,1.58
2023-08-27T10:31:41.585Z,1.60
2023-08-27T10:34:11.725Z,2.63
2023-08-27T10:36:45.529Z,1.58
2023-08-27T10:39:19.108Z,1.85
2023-08-27T10:41:50.101Z,1.65
2023-08-27T10:44:24.270Z,1.70
2023-08-27T10:47:16.257Z,2.03
2023-08-27T10:49:49.214Z,2.00
2023-08-27T10:52:22.696Z,2.10
2023-08-27T10:55:05.105Z,2.10
2023-08-27T10:57:40.112Z,2.15
2023-08-27T11:00:26.920Z,2.08
2023-08-27T11:03:01.516Z,1.80
2023-08-27T11:05:32.880Z,1.60
2023-08-27T11:08:16.847Z,1.77
2023-08-27T11:10:47.551Z,1.70
2023-08-27T11:13:40.779Z,1.75
2023-08-27T11:16:18.704Z,1.63
2023-08-27T11:18:52.561Z,1.60
2023-08-27T11:21:24.528Z,1.50
2023-08-27T11:24:20.832Z,1.77
2023-08-27T11:27:00.436Z,1.40
2023-08-27T11:29:31.622Z,1.48
2023-08-27T11:32:05.769Z,1.80
2023-08-27T11:34:39.789Z,1.60
2023-08-27T11:37:11.117Z,1.58
2023-08-27T11:39:42.892Z,1.60
2023-08-27T11:42:15.252Z,1.40
2023-08-27T11:44:52.934Z,1.50
2023-08-27T11:47:26.554Z,1.45
2023-08-27T11:50:00.986Z,1.77
2023-08-27T11:52:34.511Z,1.40
2023-08-27T11:55:05.475Z,1.75
2023-08-27T11:57:36.928Z,1.52
2023-08-27T12:00:14.545Z,1.63
2023-08-27T12:02:47.337Z,1.50
2023-08-27T12:05:18.999Z,1.70
2023-08-27T12:07:50.382Z,2.20
2023-08-27T12:10:35.280Z,1.70
2023-08-27T12:13:06.283Z,1.83
2023-08-27T12:15:37.555Z,1.90
2023-08-27T12:18:13.214Z,1.90
2023-08-27T12:20:43.356Z,1.80
2023-08-27T12:23:15.934Z,1.85
2023-08-27T12:25:52.114Z,1.83
2023-08-27T12:28:22.952Z,1.98
2023-08-27T12:30:55.399Z,1.90
2023-08-27T12:33:41.189Z,1.60
2023-08-27T12:36:11.671Z,1.90
2023-08-27T12:38:41.832Z,1.83
2023-08-27T12:41:14.802Z,1.73
2023-08-27T12:43:44.663Z,1.42
2023-08-27T12:46:15.298Z,1.80
2023-08-27T12:48:49.591Z,1.77
2023-08-27T12:51:20.382Z,1.85
2023-08-27T12:53:50.911Z,1.52
2023-08-27T12:56:21.667Z,1.67
2023-08-27T12:58:51.586Z,1.58
2023-08-27T13:01:22.992Z,1.83
2023-08-27T13:03:55.134Z,1.50
2023-08-27T13:06:26.263Z,2.08
2023-08-27T13:08:56.741Z,1.30
2023-08-27T13:11:27.597Z,1.48
2023-08-27T13:13:58.016Z,1.85
2023-08-27T13:16:29.686Z,1.40
2023-08-27T13:19:02.404Z,1.95
2023-08-27T13:21:32.292Z,1.80
2023-08-27T13:24:05.055Z,2.00
2023-08-27T13:26:36.219Z,1.85
2023-08-27T13:29:08.367Z,1.80
2023-08-27T13:31:39.695Z,1.88
2023-08-27T13:34:11.390Z,1.85
2023-08-27T13:36:43.833Z,1.88
2023-08-27T13:39:13.897Z,1.80
2023-08-27T13:41:44.769Z,2.38
2023-08-27T13:44:15.471Z,2.33
2023-08-27T13:46:49.480Z,2.03
2023-08-27T13:49:22.305Z,1.98
2023-08-27T13:51:52.542Z,1.90
2023-08-27T13:54:22.317Z,1.90
2023-08-27T13:56:52.827Z,2.03
2023-08-27T13:59:23.688Z,1.95
2023-08-27T14:01:53.833Z,1.90
2023-08-27T14:04:25.711Z,2.00
2023-08-27T14:06:57.942Z,1.98
2023-08-27T14:09:29.685Z,1.90
2023-08-27T14:12:01.284Z,1.80
2023-08-27T14:14:32.368Z,1.70
2023-08-27T14:17:02.949Z,1.90
2023-08-27T14:19:35.726Z,1.55
2023-08-27T14:22:06.680Z,1.90
2023-08-27T14:24:37.690Z,1.58
2023-08-27T14:27:08.740Z,1.83
2023-08-27T14:29:40.313Z,1.90
2023-08-27T14:32:10.433Z,1.90
2023-08-27T14:34:42.840Z,2.40
2023-08-27T14:37:13.612Z,1.70
2023-08-27T14:39:44.588Z,2.00
2023-08-27T14:42:15.385Z,1.88
2023-08-27T14:44:45.641Z,1.92
2023-08-27T14:47:20.821Z,1.90
2023-08-27T14:49:53.484Z,1.80
2023-08-27T14:52:24.511Z,2.00
2023-08-27T14:54:55.083Z,1.90
2023-08-27T14:57:27.787Z,2.47
2023-08-27T14:59:58.350Z,1.73
2023-08-27T15:02:28.939Z,1.83
2023-08-27T15:05:01.658Z,1.88
2023-08-27T15:07:33.421Z,1.85
2023-08-27T15:10:04.046Z,2.00
2023-08-27T15:12:35.144Z,1.83
2023-08-27T15:15:05.855Z,1.80
2023-08-27T15:17:36.138Z,1.80
2023-08-27T15:20:10.952Z,1.67
2023-08-27T15:22:41.577Z,1.75
2023-08-27T15:25:13.078Z,1.90
2023-08-27T15:27:44.431Z,1.88
2023-08-27T15:30:16.589Z,1.85
2023-08-27T15:32:47.338Z,1.83
2023-08-27T15:35:19.780Z,2.00
2023-08-27T15:37:51.208Z,1.70
2023-08-27T15:40:21.145Z,1.85
2023-08-27T15:43:11.897Z,1.70
2023-08-27T15:45:42.525Z,1.90
2023-08-27T15:48:14.380Z,1.90
2023-08-27T15:50:45.793Z,1.42
2023-08-27T15:53:18.955Z,1.80
2023-08-27T15:55:49.885Z,1.85
2023-08-27T15:58:20.362Z,1.77
2023-08-27T16:00:51.718Z,1.80
2023-08-27T16:03:22.418Z,1.83
2023-08-27T16:05:54.935Z,1.85
2023-08-27T16:08:25.911Z,1.83
2023-08-27T16:10:56.536Z,1.75
2023-08-27T16:13:27.173Z,1.85
2023-08-27T16:15:58.141Z,2.00
2023-08-27T16:18:28.016Z,1.92
2023-08-27T16:20:59.828Z,1.95
2023-08-27T16:23:29.619Z,1.80
2023-08-27T16:26:00.601Z,1.75
2023-08-27T16:28:31.186Z,1.88
2023-08-27T16:31:01.832Z,1.38
2023-08-27T16:33:32.434Z,1.70
2023-08-27T16:36:05.266Z,1.63
2023-08-27T16:38:35.833Z,1.63
2023-08-27T16:41:06.421Z,1.70
2023-08-27T16:43:37.091Z,1.67
2023-08-27T16:46:06.987Z,1.55
2023-08-27T16:48:37.891Z,1.90
2023-08-27T16:51:10.466Z,1.70
2023-08-27T16:53:43.936Z,1.50
2023-08-27T16:56:14.587Z,1.60
2023-08-27T16:58:45.491Z,1.65
2023-08-27T17:01:15.997Z,1.73
2023-08-27T17:03:46.675Z,1.45
2023-08-27T17:06:18.885Z,1.73
2023-08-27T17:08:49.348Z,1.63
2023-08-27T17:11:20.330Z,1.50
2023-08-27T17:13:50.894Z,1.92
2023-08-27T17:16:21.595Z,1.70
2023-08-27T17:18:51.412Z,1.63
2023-08-27T17:21:26.247Z,1.50
2023-08-27T17:23:57.063Z,1.60
2023-08-27T17:26:26.874Z,1.67
2023-08-27T17:28:56.709Z,1.70
2023-08-27T17:31:26.809Z,1.80
2023-08-27T17:33:57.385Z,1.50
2023-08-27T17:36:30.469Z,1.58
2023-08-27T17:39:00.306Z,1.65
2023-08-27T17:41:33.457Z,1.70
2023-08-27T17:44:04.587Z,1.38
2023-08-27T17:46:34.418Z,1.48
2023-08-27T17:49:04.998Z,1.48
2023-08-27T17:51:37.392Z,1.48
2023-08-27T17:54:08.935Z,1.50
2023-08-27T17:56:39.655Z,1.50
2023-08-27T17:59:12.848Z,1.30
2023-08-27T18:01:44.848Z,1.33
2023-08-27T18:04:15.452Z,1.23
2023-08-27T18:06:47.898Z,1.50
2023-08-27T18:09:19.192Z,1.55
2023-08-27T18:11:49.920Z,1.70
2023-08-27T18:14:20.373Z,1.30
2023-08-27T18:16:51.092Z,1.60
2023-08-27T18:19:21.895Z,1.60
2023-08-27T18:21:54.328Z,1.52
2023-08-27T18:24:24.889Z,1.40
2023-08-27T18:26:55.409Z,1.50
2023-08-27T18:29:25.329Z,1.42
2023-08-27T18:31:55.900Z,1.70
2023-08-27T18:34:26.555Z,1.70
2023-08-27T18:36:58.339Z,1.75
2023-08-27T18:39:28.911Z,1.50
2023-08-27T18:41:59.315Z,1.60
2023-08-27T18:44:30.092Z,1.50
2023-08-27T18:47:00.600Z,1.50
2023-08-27T18:49:30.485Z,1.42
2023-08-27T18:52:02.981Z,1.65
2023-08-27T18:54:32.899Z,1.60
2023-08-27T18:57:03.507Z,1.20
2023-08-27T18:59:34.805Z,1.60
2023-08-27T19:02:06.554Z,1.20
2023-08-27T19:04:37.906Z,1.55
2023-08-27T19:07:10.324Z,1.40
2023-08-27T19:09:43.469Z,1.40
2023-08-27T19:12:16.225Z,1.50
2023-08-27T19:14:51.028Z,1.42
2023-08-27T19:17:22.409Z,1.52
2023-08-27T19:19:56.003Z,1.27
2023-08-27T19:22:28.018Z,1.45
2023-08-27T19:24:58.122Z,1.48
2023-08-27T19:27:28.289Z,1.30
2023-08-27T19:29:58.781Z,1.30
2023-08-27T19:32:29.341Z,1.30
2023-08-27T19:35:00.689Z,1.73
2023-08-27T19:37:34.076Z,1.45
2023-08-27T19:40:05.507Z,1.27
2023-08-27T19:42:36.520Z,1.60
2023-08-27T19:45:09.705Z,1.35
2023-08-27T19:47:42.153Z,1.48
2023-08-27T19:50:15.499Z,1.50
2023-08-27T19:52:47.453Z,1.38
2023-08-27T19:55:17.472Z,1.60
2023-08-27T19:57:47.144Z,1.42
2023-08-27T20:00:18.962Z,1.30
2023-08-27T20:02:49.276Z,1.23
2023-08-27T20:05:21.790Z,1.48
2023-08-27T20:07:52.947Z,1.50
2023-08-27T20:10:23.098Z,1.70
2023-08-27T20:12:53.053Z,1.50
2023-08-27T20:15:23.059Z,1.50
2023-08-27T20:17:53.638Z,1.60
2023-08-27T20:20:27.204Z,1.52
2023-08-27T20:22:59.455Z,1.65
2023-08-27T20:25:30.794Z,1.88
2023-08-27T20:28:01.918Z,1.50
2023-08-27T20:30:32.757Z,1.65
2023-08-27T20:33:03.718Z,1.40
2023-08-27T20:35:34.659Z,1.50
2023-08-27T20:38:07.830Z,1.50
2023-08-27T20:40:40.069Z,1.40
2023-08-27T20:43:11.272Z,1.45
2023-08-27T20:45:46.027Z,1.70
2023-08-27T20:48:16.586Z,1.63
2023-08-27T20:50:46.791Z,1.52
2023-08-27T20:53:19.081Z,1.70
2023-08-27T20:55:49.631Z,1.67
2023-08-27T20:58:20.120Z,1.60
2023-08-27T21:00:49.961Z,1.83
2023-08-27T21:03:19.579Z,1.85
2023-08-27T21:05:49.402Z,1.55
2023-08-27T21:08:21.913Z,1.80
2023-08-27T21:10:51.617Z,1.80
2023-08-27T21:13:21.317Z,1.80
2023-08-27T21:15:55.304Z,1.95
2023-08-27T21:18:25.789Z,1.80
2023-08-27T21:20:57.238Z,1.45
2023-08-27T21:23:29.854Z,1.40
2023-08-27T21:26:00.424Z,1.80
2023-08-27T21:28:31.185Z,1.70
2023-08-27T21:31:17.858Z,1.70
2023-08-27T21:33:53.484Z,2.00
2023-08-27T21:36:23.800Z,1.50
2023-08-27T21:38:55.448Z,1.77
2023-08-27T21:41:25.048Z,1.70
2023-08-27T21:43:55.334Z,1.80
2023-08-27T21:49:12.891Z,1.50
2023-08-27T21:51:43.254Z,1.50
2023-08-27T21:54:15.992Z,1.55
2023-08-27T21:56:46.590Z,1.95
2023-08-27T21:59:17.266Z,1.80
2023-08-27T22:01:47.656Z,1.73
2023-08-27T22:04:20.364Z,1.90
2023-08-27T22:06:50.775Z,1.63
2023-08-27T22:09:22.531Z,2.00
2023-08-27T22:11:53.236Z,1.80
2023-08-27T22:14:23.671Z,1.75
2023-08-27T22:16:53.819Z,1.70
2023-08-27T22:19:24.594Z,1.77
2023-08-27T22:21:54.543Z,1.65
2023-08-27T22:24:26.731Z,1.90
2023-08-27T22:26:56.964Z,1.85
2023-08-27T22:29:26.706Z,1.90
2023-08-27T22:31:57.251Z,1.95
2023-08-27T22:34:27.191Z,1.90
2023-08-27T22:36:56.946Z,1.70
2023-08-27T22:39:29.209Z,1.90
2023-08-27T22:41:58.980Z,1.80
2023-08-27T22:44:29.138Z,1.70
2023-08-27T22:46:58.864Z,1.90
2023-08-27T22:49:29.182Z,1.90
2023-08-27T22:52:07.251Z,2.05
2023-08-27T22:54:41.390Z,1.80
2023-08-27T22:57:11.864Z,1.70
2023-08-27T22:59:42.566Z,1.80
2023-08-27T23:02:12.997Z,1.90
2023-08-27T23:04:44.135Z,1.70
2023-08-27T23:07:14.328Z,1.80
2023-08-27T23:09:47.620Z,1.83
2023-08-27T23:12:18.064Z,1.77
2023-08-27T23:14:48.400Z,1.80
2023-08-27T23:17:18.057Z,1.88
2023-08-27T23:19:49.515Z,1.65
2023-08-27T23:22:19.825Z,1.73
2023-08-27T23:24:51.760Z,1.70
2023-08-27T23:27:22.215Z,1.95
2023-08-27T23:29:53.681Z,1.90
2023-08-27T23:32:24.403Z,1.83
2023-08-27T23:34:54.374Z,1.80
2023-08-27T23:37:25.429Z,1.67
2023-08-27T23:39:57.980Z,1.77
2023-08-27T23:42:28.408Z,1.85
2023-08-27T23:45:01.334Z,1.90
2023-08-27T23:47:32.581Z,2.00
2023-08-27T23:50:02.401Z,1.90
2023-08-27T23:52:32.644Z,1.85
2023-08-27T23:55:06.013Z,1.98
2023-08-27T23:57:36.676Z,2.05
